Terminal Aerodrome Forecast
Issued by NWS Hastings, NE

Home | Current Version | Previous Version | Text Only | Print | Product List | Glossary On
Versions: 1 2 3 4 5 6 7 8 9 10 11 12 13 14
929
FTUS45 KGID 260549
TAFEAR
TAF
KEAR 260549Z 2606/2706 21007KT P6SM SCT250
     FM261300 26008KT P6SM SCT150
     FM261700 33006KT P6SM SCT150
     FM261800 36005KT P6SM VCTS SCT070CB
     FM270000 07009KT P6SM SCT200
      AMD LTD TO CLD VIS AND WIND=

USA.gov is the U.S. government's official web portal to all federal, state and local government web resources and services.